sensor_id;sensor_type;location;lat;lon;timestamp;P1;durP1;ratioP1;P2;durP2;ratioP2
20711;SDS011;10517;50.742;4.224;2023-05-15T00:02:10;36.50;;;18.08;;
20711;SDS011;10517;50.742;4.224;2023-05-15T00:04:36;44.78;;;17.85;;
20711;SDS011;10517;50.742;4.224;2023-05-15T00:07:02;36.20;;;17.25;;
20711;SDS011;10517;50.742;4.224;2023-05-15T00:09:28;40.47;;;17.55;;
20711;SDS011;10517;50.742;4.224;2023-05-15T00:11:54;49.33;;;18.30;;
20711;SDS011;10517;50.742;4.224;2023-05-15T00:14:19;46.73;;;19.93;;
20711;SDS011;10517;50.742;4.224;2023-05-15T00:16:45;47.95;;;19.92;;
20711;SDS011;10517;50.742;4.224;2023-05-15T00:19:11;42.17;;;18.90;;
20711;SDS011;10517;50.742;4.224;2023-05-15T00:21:36;48.08;;;18.10;;
20711;SDS011;10517;50.742;4.224;2023-05-15T00:24:02;47.65;;;18.40;;
20711;SDS011;10517;50.742;4.224;2023-05-15T00:26:28;43.03;;;18.10;;
20711;SDS011;10517;50.742;4.224;2023-05-15T00:28:55;38.95;;;18.08;;
20711;SDS011;10517;50.742;4.224;2023-05-15T00:31:20;33.55;;;17.85;;
20711;SDS011;10517;50.742;4.224;2023-05-15T00:33:46;35.15;;;16.92;;
20711;SDS011;10517;50.742;4.224;2023-05-15T00:36:11;40.30;;;17.50;;
20711;SDS011;10517;50.742;4.224;2023-05-15T00:38:37;41.25;;;17.17;;
20711;SDS011;10517;50.742;4.224;2023-05-15T00:41:03;39.90;;;17.60;;
20711;SDS011;10517;50.742;4.224;2023-05-15T00:43:30;43.57;;;16.03;;
20711;SDS011;10517;50.742;4.224;2023-05-15T00:45:58;39.60;;;15.53;;
20711;SDS011;10517;50.742;4.224;2023-05-15T00:48:23;35.03;;;17.57;;
20711;SDS011;10517;50.742;4.224;2023-05-15T00:50:50;33.67;;;15.63;;
20711;SDS011;10517;50.742;4.224;2023-05-15T00:53:16;37.57;;;17.27;;
20711;SDS011;10517;50.742;4.224;2023-05-15T00:55:44;33.30;;;15.40;;
20711;SDS011;10517;50.742;4.224;2023-05-15T00:58:12;32.07;;;15.27;;
20711;SDS011;10517;50.742;4.224;2023-05-15T01:00:39;40.27;;;16.00;;
20711;SDS011;10517;50.742;4.224;2023-05-15T01:03:06;40.90;;;16.80;;
20711;SDS011;10517;50.742;4.224;2023-05-15T01:05:33;28.60;;;14.53;;
20711;SDS011;10517;50.742;4.224;2023-05-15T01:10:46;36.33;;;15.93;;
20711;SDS011;10517;50.742;4.224;2023-05-15T01:13:14;29.83;;;13.97;;
20711;SDS011;10517;50.742;4.224;2023-05-15T01:15:40;31.97;;;14.80;;
20711;SDS011;10517;50.742;4.224;2023-05-15T01:18:06;33.80;;;14.83;;
20711;SDS011;10517;50.742;4.224;2023-05-15T01:28:47;26.50;;;14.27;;
20711;SDS011;10517;50.742;4.224;2023-05-15T01:31:38;29.87;;;15.10;;
20711;SDS011;10517;50.742;4.224;2023-05-15T01:34:07;35.43;;;15.50;;
20711;SDS011;10517;50.742;4.224;2023-05-15T01:36:36;37.17;;;15.50;;
20711;SDS011;10517;50.742;4.224;2023-05-15T01:39:20;28.53;;;14.70;;
20711;SDS011;10517;50.742;4.224;2023-05-15T01:41:53;29.23;;;15.87;;
20711;SDS011;10517;50.742;4.224;2023-05-15T01:44:27;24.27;;;13.37;;
20711;SDS011;10517;50.742;4.224;2023-05-15T01:46:56;30.73;;;15.77;;
20711;SDS011;10517;50.742;4.224;2023-05-15T01:49:27;27.70;;;13.67;;
20711;SDS011;10517;50.742;4.224;2023-05-15T01:52:02;25.40;;;13.63;;
20711;SDS011;10517;50.742;4.224;2023-05-15T01:54:36;23.57;;;13.27;;
20711;SDS011;10517;50.742;4.224;2023-05-15T01:57:03;24.67;;;13.27;;
20711;SDS011;10517;50.742;4.224;2023-05-15T01:59:31;27.20;;;13.60;;
20711;SDS011;10517;50.742;4.224;2023-05-15T02:01:58;34.30;;;15.33;;
20711;SDS011;10517;50.742;4.224;2023-05-15T02:04:24;30.57;;;13.37;;
20711;SDS011;10517;50.742;4.224;2023-05-15T02:06:50;28.63;;;14.47;;
20711;SDS011;10517;50.742;4.224;2023-05-15T02:09:18;27.00;;;13.27;;
20711;SDS011;10517;50.742;4.224;2023-05-15T02:11:45;24.20;;;13.27;;
20711;SDS011;10517;50.742;4.224;2023-05-15T02:14:11;28.67;;;13.43;;
20711;SDS011;10517;50.742;4.224;2023-05-15T02:16:38;26.67;;;13.83;;
20711;SDS011;10517;50.742;4.224;2023-05-15T02:19:04;25.57;;;13.43;;
20711;SDS011;10517;50.742;4.224;2023-05-15T02:21:30;28.97;;;14.90;;
20711;SDS011;10517;50.742;4.224;2023-05-15T02:23:56;29.97;;;14.73;;
20711;SDS011;10517;50.742;4.224;2023-05-15T02:29:19;34.43;;;16.33;;
20711;SDS011;10517;50.742;4.224;2023-05-15T02:34:38;43.57;;;18.13;;
20711;SDS011;10517;50.742;4.224;2023-05-15T02:37:18;45.97;;;20.30;;
20711;SDS011;10517;50.742;4.224;2023-05-15T02:39:58;47.60;;;20.67;;
20711;SDS011;10517;50.742;4.224;2023-05-15T02:42:25;45.97;;;19.60;;
20711;SDS011;10517;50.742;4.224;2023-05-15T02:44:53;53.43;;;22.80;;
20711;SDS011;10517;50.742;4.224;2023-05-15T02:47:20;46.17;;;20.50;;
20711;SDS011;10517;50.742;4.224;2023-05-15T02:49:47;43.03;;;20.00;;
20711;SDS011;10517;50.742;4.224;2023-05-15T02:52:13;47.03;;;19.93;;
20711;SDS011;10517;50.742;4.224;2023-05-15T02:54:39;52.60;;;20.83;;
20711;SDS011;10517;50.742;4.224;2023-05-15T02:57:05;41.40;;;19.83;;
20711;SDS011;10517;50.742;4.224;2023-05-15T02:59:32;44.87;;;20.00;;
20711;SDS011;10517;50.742;4.224;2023-05-15T03:01:58;41.30;;;21.17;;
20711;SDS011;10517;50.742;4.224;2023-05-15T03:04:23;41.08;;;19.40;;
20711;SDS011;10517;50.742;4.224;2023-05-15T03:06:49;45.03;;;21.23;;
20711;SDS011;10517;50.742;4.224;2023-05-15T03:09:15;48.53;;;20.83;;
20711;SDS011;10517;50.742;4.224;2023-05-15T03:11:41;46.63;;;19.87;;
20711;SDS011;10517;50.742;4.224;2023-05-15T03:14:07;39.73;;;19.37;;
20711;SDS011;10517;50.742;4.224;2023-05-15T03:16:33;42.17;;;19.40;;
20711;SDS011;10517;50.742;4.224;2023-05-15T03:19:00;42.00;;;20.98;;
20711;SDS011;10517;50.742;4.224;2023-05-15T03:21:26;47.27;;;20.20;;
20711;SDS011;10517;50.742;4.224;2023-05-15T03:23:52;41.97;;;19.57;;
20711;SDS011;10517;50.742;4.224;2023-05-15T03:26:17;44.77;;;22.10;;
20711;SDS011;10517;50.742;4.224;2023-05-15T03:28:43;46.57;;;20.97;;
20711;SDS011;10517;50.742;4.224;2023-05-15T03:31:08;43.30;;;18.63;;
20711;SDS011;10517;50.742;4.224;2023-05-15T03:33:34;40.53;;;19.03;;
20711;SDS011;10517;50.742;4.224;2023-05-15T03:36:00;42.60;;;18.77;;
20711;SDS011;10517;50.742;4.224;2023-05-15T03:38:25;41.07;;;19.97;;
20711;SDS011;10517;50.742;4.224;2023-05-15T03:40:51;39.67;;;19.10;;
20711;SDS011;10517;50.742;4.224;2023-05-15T03:43:17;37.57;;;18.10;;
20711;SDS011;10517;50.742;4.224;2023-05-15T03:45:42;45.77;;;20.13;;
20711;SDS011;10517;50.742;4.224;2023-05-15T03:48:08;41.83;;;20.70;;
20711;SDS011;10517;50.742;4.224;2023-05-15T03:50:34;42.53;;;19.42;;
20711;SDS011;10517;50.742;4.224;2023-05-15T03:52:59;45.53;;;18.87;;
20711;SDS011;10517;50.742;4.224;2023-05-15T03:55:25;46.47;;;20.23;;
20711;SDS011;10517;50.742;4.224;2023-05-15T03:57:51;38.45;;;18.13;;
20711;SDS011;10517;50.742;4.224;2023-05-15T04:00:16;41.67;;;18.17;;
20711;SDS011;10517;50.742;4.224;2023-05-15T04:02:42;33.78;;;17.23;;
20711;SDS011;10517;50.742;4.224;2023-05-15T04:05:08;40.78;;;17.58;;
20711;SDS011;10517;50.742;4.224;2023-05-15T04:07:34;41.70;;;17.65;;
20711;SDS011;10517;50.742;4.224;2023-05-15T04:10:00;32.47;;;15.65;;
20711;SDS011;10517;50.742;4.224;2023-05-15T04:12:33;35.60;;;16.50;;
20711;SDS011;10517;50.742;4.224;2023-05-15T04:15:12;43.35;;;18.05;;
20711;SDS011;10517;50.742;4.224;2023-05-15T04:17:40;36.03;;;17.83;;
20711;SDS011;10517;50.742;4.224;2023-05-15T04:20:06;36.80;;;17.13;;
20711;SDS011;10517;50.742;4.224;2023-05-15T04:22:32;40.03;;;19.15;;
20711;SDS011;10517;50.742;4.224;2023-05-15T04:24:58;41.38;;;17.52;;
20711;SDS011;10517;50.742;4.224;2023-05-15T04:27:24;38.00;;;19.33;;
20711;SDS011;10517;50.742;4.224;2023-05-15T04:29:50;38.75;;;16.75;;
20711;SDS011;10517;50.742;4.224;2023-05-15T04:32:16;44.17;;;18.75;;
20711;SDS011;10517;50.742;4.224;2023-05-15T04:34:42;36.97;;;18.42;;
20711;SDS011;10517;50.742;4.224;2023-05-15T04:37:07;40.58;;;19.55;;
20711;SDS011;10517;50.742;4.224;2023-05-15T04:39:34;38.47;;;18.48;;
20711;SDS011;10517;50.742;4.224;2023-05-15T04:42:00;36.65;;;17.83;;
20711;SDS011;10517;50.742;4.224;2023-05-15T04:44:26;42.85;;;18.67;;
20711;SDS011;10517;50.742;4.224;2023-05-15T04:46:51;38.85;;;17.60;;
20711;SDS011;10517;50.742;4.224;2023-05-15T04:49:17;34.45;;;17.15;;
20711;SDS011;10517;50.742;4.224;2023-05-15T04:51:43;34.20;;;17.35;;
20711;SDS011;10517;50.742;4.224;2023-05-15T04:54:08;36.10;;;18.67;;
20711;SDS011;10517;50.742;4.224;2023-05-15T04:56:34;42.35;;;17.88;;
20711;SDS011;10517;50.742;4.224;2023-05-15T04:59:00;32.60;;;17.30;;
20711;SDS011;10517;50.742;4.224;2023-05-15T05:01:26;39.53;;;18.55;;
20711;SDS011;10517;50.742;4.224;2023-05-15T05:03:53;39.17;;;17.50;;
20711;SDS011;10517;50.742;4.224;2023-05-15T05:06:18;34.20;;;16.75;;
20711;SDS011;10517;50.742;4.224;2023-05-15T05:08:44;40.65;;;19.60;;
20711;SDS011;10517;50.742;4.224;2023-05-15T05:11:10;41.47;;;18.38;;
20711;SDS011;10517;50.742;4.224;2023-05-15T05:13:35;34.47;;;17.48;;
20711;SDS011;10517;50.742;4.224;2023-05-15T05:16:01;39.92;;;19.08;;
20711;SDS011;10517;50.742;4.224;2023-05-15T05:18:26;37.58;;;18.42;;
20711;SDS011;10517;50.742;4.224;2023-05-15T05:21:00;40.53;;;18.98;;
20711;SDS011;10517;50.742;4.224;2023-05-15T05:23:26;38.10;;;18.97;;
20711;SDS011;10517;50.742;4.224;2023-05-15T05:25:52;38.47;;;18.13;;
20711;SDS011;10517;50.742;4.224;2023-05-15T05:28:18;36.58;;;18.73;;
20711;SDS011;10517;50.742;4.224;2023-05-15T05:30:44;38.03;;;18.65;;
20711;SDS011;10517;50.742;4.224;2023-05-15T05:33:10;39.97;;;19.20;;
20711;SDS011;10517;50.742;4.224;2023-05-15T05:35:36;34.87;;;16.40;;
20711;SDS011;10517;50.742;4.224;2023-05-15T05:38:02;33.73;;;16.53;;
20711;SDS011;10517;50.742;4.224;2023-05-15T05:40:28;34.07;;;15.83;;
20711;SDS011;10517;50.742;4.224;2023-05-15T05:42:53;35.50;;;17.80;;
20711;SDS011;10517;50.742;4.224;2023-05-15T05:45:22;43.23;;;18.77;;
20711;SDS011;10517;50.742;4.224;2023-05-15T05:47:48;38.53;;;18.60;;
20711;SDS011;10517;50.742;4.224;2023-05-15T05:50:13;41.20;;;18.63;;
20711;SDS011;10517;50.742;4.224;2023-05-15T05:52:39;32.58;;;18.00;;
20711;SDS011;10517;50.742;4.224;2023-05-15T05:55:05;42.57;;;17.30;;
20711;SDS011;10517;50.742;4.224;2023-05-15T05:57:31;33.13;;;17.90;;
20711;SDS011;10517;50.742;4.224;2023-05-15T05:59:57;41.17;;;17.20;;
20711;SDS011;10517;50.742;4.224;2023-05-15T06:02:23;38.33;;;17.67;;
20711;SDS011;10517;50.742;4.224;2023-05-15T06:04:48;33.70;;;16.27;;
20711;SDS011;10517;50.742;4.224;2023-05-15T06:07:14;34.90;;;16.83;;
20711;SDS011;10517;50.742;4.224;2023-05-15T06:09:40;37.13;;;18.00;;
20711;SDS011;10517;50.742;4.224;2023-05-15T06:12:06;35.10;;;16.50;;
20711;SDS011;10517;50.742;4.224;2023-05-15T06:14:33;40.47;;;17.93;;
20711;SDS011;10517;50.742;4.224;2023-05-15T06:16:59;39.70;;;17.70;;
20711;SDS011;10517;50.742;4.224;2023-05-15T06:19:25;35.73;;;16.40;;
20711;SDS011;10517;50.742;4.224;2023-05-15T06:21:51;37.30;;;17.87;;
20711;SDS011;10517;50.742;4.224;2023-05-15T06:24:17;37.67;;;17.77;;
20711;SDS011;10517;50.742;4.224;2023-05-15T06:26:42;46.90;;;18.10;;
20711;SDS011;10517;50.742;4.224;2023-05-15T06:29:08;39.90;;;18.33;;
20711;SDS011;10517;50.742;4.224;2023-05-15T06:31:34;41.37;;;17.73;;
20711;SDS011;10517;50.742;4.224;2023-05-15T06:34:00;35.15;;;17.63;;
20711;SDS011;10517;50.742;4.224;2023-05-15T06:36:25;37.20;;;16.50;;
20711;SDS011;10517;50.742;4.224;2023-05-15T06:38:51;40.97;;;18.63;;
20711;SDS011;10517;50.742;4.224;2023-05-15T06:41:17;36.03;;;17.60;;
20711;SDS011;10517;50.742;4.224;2023-05-15T06:43:42;33.03;;;16.25;;
20711;SDS011;10517;50.742;4.224;2023-05-15T06:46:08;35.33;;;16.57;;
20711;SDS011;10517;50.742;4.224;2023-05-15T06:48:34;41.30;;;18.35;;
20711;SDS011;10517;50.742;4.224;2023-05-15T06:51:00;35.67;;;17.00;;
20711;SDS011;10517;50.742;4.224;2023-05-15T06:53:25;39.13;;;17.65;;
20711;SDS011;10517;50.742;4.224;2023-05-15T06:55:53;42.13;;;18.25;;
20711;SDS011;10517;50.742;4.224;2023-05-15T06:58:19;37.42;;;17.17;;
20711;SDS011;10517;50.742;4.224;2023-05-15T07:00:44;39.70;;;18.73;;
20711;SDS011;10517;50.742;4.224;2023-05-15T07:03:10;38.85;;;18.23;;
20711;SDS011;10517;50.742;4.224;2023-05-15T07:05:38;38.75;;;17.10;;
20711;SDS011;10517;50.742;4.224;2023-05-15T07:08:04;45.10;;;18.25;;
20711;SDS011;10517;50.742;4.224;2023-05-15T07:10:29;36.25;;;16.75;;
20711;SDS011;10517;50.742;4.224;2023-05-15T07:12:55;36.92;;;16.98;;
20711;SDS011;10517;50.742;4.224;2023-05-15T07:15:21;39.08;;;18.05;;
20711;SDS011;10517;50.742;4.224;2023-05-15T07:17:46;38.38;;;17.85;;
20711;SDS011;10517;50.742;4.224;2023-05-15T07:20:12;42.03;;;17.75;;
20711;SDS011;10517;50.742;4.224;2023-05-15T07:22:38;35.85;;;16.48;;
20711;SDS011;10517;50.742;4.224;2023-05-15T07:25:04;36.60;;;17.15;;
20711;SDS011;10517;50.742;4.224;2023-05-15T07:27:30;35.53;;;17.02;;
20711;SDS011;10517;50.742;4.224;2023-05-15T07:29:56;42.65;;;18.60;;
20711;SDS011;10517;50.742;4.224;2023-05-15T07:32:21;35.58;;;15.95;;
20711;SDS011;10517;50.742;4.224;2023-05-15T07:34:47;36.70;;;17.38;;
20711;SDS011;10517;50.742;4.224;2023-05-15T07:37:13;36.80;;;18.90;;
20711;SDS011;10517;50.742;4.224;2023-05-15T07:39:38;35.17;;;16.90;;
20711;SDS011;10517;50.742;4.224;2023-05-15T07:42:04;30.15;;;15.23;;
20711;SDS011;10517;50.742;4.224;2023-05-15T07:44:30;36.47;;;15.90;;
20711;SDS011;10517;50.742;4.224;2023-05-15T07:46:56;31.48;;;14.98;;
20711;SDS011;10517;50.742;4.224;2023-05-15T07:49:23;30.00;;;15.48;;
20711;SDS011;10517;50.742;4.224;2023-05-15T07:51:48;26.35;;;14.48;;
20711;SDS011;10517;50.742;4.224;2023-05-15T07:54:14;32.42;;;15.30;;
20711;SDS011;10517;50.742;4.224;2023-05-15T07:56:40;27.88;;;14.93;;
20711;SDS011;10517;50.742;4.224;2023-05-15T07:59:06;27.27;;;14.65;;
20711;SDS011;10517;50.742;4.224;2023-05-15T08:01:32;31.80;;;13.98;;
20711;SDS011;10517;50.742;4.224;2023-05-15T08:03:57;32.08;;;14.65;;
20711;SDS011;10517;50.742;4.224;2023-05-15T08:06:23;29.38;;;15.45;;
20711;SDS011;10517;50.742;4.224;2023-05-15T08:08:49;25.95;;;13.02;;
20711;SDS011;10517;50.742;4.224;2023-05-15T08:11:14;30.17;;;14.75;;
20711;SDS011;10517;50.742;4.224;2023-05-15T08:13:40;27.65;;;13.98;;
20711;SDS011;10517;50.742;4.224;2023-05-15T08:16:06;29.70;;;14.82;;
20711;SDS011;10517;50.742;4.224;2023-05-15T08:18:31;30.10;;;14.80;;
20711;SDS011;10517;50.742;4.224;2023-05-15T08:20:57;30.70;;;15.13;;
20711;SDS011;10517;50.742;4.224;2023-05-15T08:23:23;39.28;;;15.70;;
20711;SDS011;10517;50.742;4.224;2023-05-15T08:25:48;27.88;;;14.40;;
20711;SDS011;10517;50.742;4.224;2023-05-15T08:28:14;33.25;;;15.10;;
20711;SDS011;10517;50.742;4.224;2023-05-15T08:30:40;33.08;;;15.20;;
20711;SDS011;10517;50.742;4.224;2023-05-15T08:33:05;32.42;;;13.68;;
20711;SDS011;10517;50.742;4.224;2023-05-15T08:35:31;30.50;;;14.40;;
20711;SDS011;10517;50.742;4.224;2023-05-15T08:37:57;34.40;;;14.82;;
20711;SDS011;10517;50.742;4.224;2023-05-15T08:40:23;31.38;;;14.68;;
20711;SDS011;10517;50.742;4.224;2023-05-15T08:42:51;29.35;;;13.82;;
20711;SDS011;10517;50.742;4.224;2023-05-15T08:45:19;32.58;;;15.45;;
20711;SDS011;10517;50.742;4.224;2023-05-15T08:47:45;34.17;;;14.70;;
20711;SDS011;10517;50.742;4.224;2023-05-15T08:50:12;29.70;;;14.13;;
20711;SDS011;10517;50.742;4.224;2023-05-15T08:52:43;32.38;;;15.50;;
20711;SDS011;10517;50.742;4.224;2023-05-15T08:55:10;28.83;;;14.65;;
20711;SDS011;10517;50.742;4.224;2023-05-15T08:57:40;31.67;;;14.85;;
20711;SDS011;10517;50.742;4.224;2023-05-15T09:00:07;24.17;;;13.43;;
20711;SDS011;10517;50.742;4.224;2023-05-15T09:02:36;26.85;;;13.50;;
20711;SDS011;10517;50.742;4.224;2023-05-15T09:05:03;30.52;;;14.77;;
20711;SDS011;10517;50.742;4.224;2023-05-15T09:07:30;33.78;;;14.52;;
20711;SDS011;10517;50.742;4.224;2023-05-15T09:09:56;28.05;;;14.32;;
20711;SDS011;10517;50.742;4.224;2023-05-15T09:12:23;33.13;;;15.05;;
20711;SDS011;10517;50.742;4.224;2023-05-15T09:14:50;34.65;;;15.43;;
20711;SDS011;10517;50.742;4.224;2023-05-15T09:17:16;28.92;;;13.90;;
20711;SDS011;10517;50.742;4.224;2023-05-15T09:19:42;34.85;;;15.27;;
20711;SDS011;10517;50.742;4.224;2023-05-15T09:24:43;34.92;;;15.63;;
20711;SDS011;10517;50.742;4.224;2023-05-15T09:27:12;34.70;;;15.00;;
20711;SDS011;10517;50.742;4.224;2023-05-15T09:29:37;31.20;;;15.82;;
20711;SDS011;10517;50.742;4.224;2023-05-15T09:32:07;30.02;;;14.93;;
20711;SDS011;10517;50.742;4.224;2023-05-15T09:34:35;35.42;;;15.00;;
20711;SDS011;10517;50.742;4.224;2023-05-15T09:37:03;33.22;;;15.13;;
20711;SDS011;10517;50.742;4.224;2023-05-15T09:39:30;36.83;;;15.50;;
20711;SDS011;10517;50.742;4.224;2023-05-15T09:42:06;32.22;;;16.10;;
20711;SDS011;10517;50.742;4.224;2023-05-15T09:44:33;35.35;;;16.75;;
20711;SDS011;10517;50.742;4.224;2023-05-15T09:46:59;37.92;;;16.23;;
20711;SDS011;10517;50.742;4.224;2023-05-15T09:49:28;38.13;;;15.32;;
20711;SDS011;10517;50.742;4.224;2023-05-15T09:51:58;35.20;;;14.82;;
20711;SDS011;10517;50.742;4.224;2023-05-15T09:54:24;31.85;;;14.38;;
20711;SDS011;10517;50.742;4.224;2023-05-15T09:56:51;32.17;;;15.93;;
20711;SDS011;10517;50.742;4.224;2023-05-15T09:59:17;33.25;;;15.00;;
20711;SDS011;10517;50.742;4.224;2023-05-15T10:01:46;30.33;;;15.18;;
20711;SDS011;10517;50.742;4.224;2023-05-15T10:04:16;27.90;;;13.98;;
20711;SDS011;10517;50.742;4.224;2023-05-15T10:06:47;25.95;;;13.00;;
20711;SDS011;10517;50.742;4.224;2023-05-15T10:09:13;26.40;;;13.63;;
20711;SDS011;10517;50.742;4.224;2023-05-15T10:11:40;24.38;;;13.55;;
20711;SDS011;10517;50.742;4.224;2023-05-15T10:14:11;29.67;;;15.10;;
20711;SDS011;10517;50.742;4.224;2023-05-15T10:16:38;26.85;;;14.02;;
20711;SDS011;10517;50.742;4.224;2023-05-15T10:19:08;31.35;;;14.95;;
20711;SDS011;10517;50.742;4.224;2023-05-15T10:21:36;27.23;;;13.65;;
20711;SDS011;10517;50.742;4.224;2023-05-15T10:24:02;31.80;;;15.35;;
20711;SDS011;10517;50.742;4.224;2023-05-15T10:29:05;25.58;;;13.75;;
20711;SDS011;10517;50.742;4.224;2023-05-15T10:31:33;24.92;;;12.18;;
20711;SDS011;10517;50.742;4.224;2023-05-15T10:34:00;26.38;;;13.10;;
20711;SDS011;10517;50.742;4.224;2023-05-15T10:36:26;31.17;;;13.82;;
20711;SDS011;10517;50.742;4.224;2023-05-15T10:38:52;27.38;;;12.52;;
20711;SDS011;10517;50.742;4.224;2023-05-15T10:41:19;25.02;;;12.82;;
20711;SDS011;10517;50.742;4.224;2023-05-15T10:43:46;26.83;;;13.27;;
20711;SDS011;10517;50.742;4.224;2023-05-15T10:46:13;24.70;;;12.23;;
20711;SDS011;10517;50.742;4.224;2023-05-15T10:48:40;34.22;;;13.40;;
20711;SDS011;10517;50.742;4.224;2023-05-15T10:51:13;28.58;;;13.20;;
20711;SDS011;10517;50.742;4.224;2023-05-15T10:53:43;30.05;;;13.52;;
20711;SDS011;10517;50.742;4.224;2023-05-15T10:56:13;27.83;;;13.57;;
20711;SDS011;10517;50.742;4.224;2023-05-15T10:58:44;25.80;;;14.45;;
20711;SDS011;10517;50.742;4.224;2023-05-15T11:01:24;23.90;;;12.48;;
20711;SDS011;10517;50.742;4.224;2023-05-15T11:03:51;29.08;;;14.35;;
20711;SDS011;10517;50.742;4.224;2023-05-15T11:06:31;29.20;;;13.82;;
20711;SDS011;10517;50.742;4.224;2023-05-15T11:14:20;29.48;;;14.30;;
20711;SDS011;10517;50.742;4.224;2023-05-15T11:19:21;25.92;;;14.27;;
20711;SDS011;10517;50.742;4.224;2023-05-15T11:21:51;30.70;;;14.18;;
20711;SDS011;10517;50.742;4.224;2023-05-15T11:24:25;28.90;;;13.90;;
20711;SDS011;10517;50.742;4.224;2023-05-15T11:26:58;32.83;;;15.07;;
20711;SDS011;10517;50.742;4.224;2023-05-15T11:29:28;32.22;;;14.70;;
20711;SDS011;10517;50.742;4.224;2023-05-15T11:31:54;32.03;;;15.20;;
20711;SDS011;10517;50.742;4.224;2023-05-15T11:36:58;36.08;;;17.75;;
20711;SDS011;10517;50.742;4.224;2023-05-15T11:39:25;35.35;;;16.65;;
20711;SDS011;10517;50.742;4.224;2023-05-15T11:41:52;32.55;;;15.20;;
20711;SDS011;10517;50.742;4.224;2023-05-15T11:44:21;35.95;;;15.82;;
20711;SDS011;10517;50.742;4.224;2023-05-15T11:46:48;34.70;;;16.52;;
20711;SDS011;10517;50.742;4.224;2023-05-15T11:49:16;36.72;;;15.50;;
20711;SDS011;10517;50.742;4.224;2023-05-15T11:51:43;41.92;;;16.88;;
20711;SDS011;10517;50.742;4.224;2023-05-15T11:54:09;38.95;;;16.65;;
20711;SDS011;10517;50.742;4.224;2023-05-15T11:56:40;38.47;;;17.92;;
20711;SDS011;10517;50.742;4.224;2023-05-15T11:59:13;46.95;;;16.95;;
20711;SDS011;10517;50.742;4.224;2023-05-15T12:01:42;38.17;;;15.68;;
20711;SDS011;10517;50.742;4.224;2023-05-15T12:04:12;42.88;;;17.23;;
20711;SDS011;10517;50.742;4.224;2023-05-15T12:06:39;40.03;;;17.08;;
20711;SDS011;10517;50.742;4.224;2023-05-15T12:09:05;40.50;;;17.50;;
20711;SDS011;10517;50.742;4.224;2023-05-15T12:11:32;48.05;;;19.58;;
20711;SDS011;10517;50.742;4.224;2023-05-15T12:13:57;49.78;;;18.23;;
20711;SDS011;10517;50.742;4.224;2023-05-15T12:16:23;43.97;;;17.38;;
20711;SDS011;10517;50.742;4.224;2023-05-15T12:18:50;38.85;;;16.98;;
20711;SDS011;10517;50.742;4.224;2023-05-15T12:21:16;36.38;;;15.45;;
20711;SDS011;10517;50.742;4.224;2023-05-15T12:23:48;33.67;;;15.73;;
20711;SDS011;10517;50.742;4.224;2023-05-15T12:26:17;38.65;;;15.48;;
20711;SDS011;10517;50.742;4.224;2023-05-15T12:28:45;37.67;;;15.48;;
20711;SDS011;10517;50.742;4.224;2023-05-15T12:31:11;33.60;;;14.88;;
20711;SDS011;10517;50.742;4.224;2023-05-15T12:33:37;27.13;;;13.63;;
20711;SDS011;10517;50.742;4.224;2023-05-15T12:36:03;28.05;;;14.48;;
20711;SDS011;10517;50.742;4.224;2023-05-15T12:38:29;34.60;;;14.70;;
20711;SDS011;10517;50.742;4.224;2023-05-15T12:40:57;24.63;;;11.57;;
20711;SDS011;10517;50.742;4.224;2023-05-15T12:43:24;22.65;;;11.70;;
20711;SDS011;10517;50.742;4.224;2023-05-15T12:45:53;24.33;;;10.18;;
20711;SDS011;10517;50.742;4.224;2023-05-15T12:48:20;19.52;;;9.85;;
20711;SDS011;10517;50.742;4.224;2023-05-15T12:50:46;21.02;;;9.73;;
20711;SDS011;10517;50.742;4.224;2023-05-15T12:53:13;16.85;;;7.78;;
20711;SDS011;10517;50.742;4.224;2023-05-15T12:55:39;13.95;;;5.97;;
20711;SDS011;10517;50.742;4.224;2023-05-15T12:58:06;13.63;;;6.63;;
20711;SDS011;10517;50.742;4.224;2023-05-15T13:00:35;10.02;;;5.15;;
20711;SDS011;10517;50.742;4.224;2023-05-15T13:03:02;11.52;;;6.22;;
20711;SDS011;10517;50.742;4.224;2023-05-15T13:05:32;13.52;;;5.43;;
20711;SDS011;10517;50.742;4.224;2023-05-15T13:07:59;14.40;;;6.68;;
20711;SDS011;10517;50.742;4.224;2023-05-15T13:10:26;9.77;;;5.38;;
20711;SDS011;10517;50.742;4.224;2023-05-15T13:12:53;13.18;;;6.43;;
20711;SDS011;10517;50.742;4.224;2023-05-15T13:15:33;13.18;;;6.40;;
20711;SDS011;10517;50.742;4.224;2023-05-15T13:18:01;11.80;;;5.82;;
20711;SDS011;10517;50.742;4.224;2023-05-15T13:20:41;6.82;;;4.10;;
20711;SDS011;10517;50.742;4.224;2023-05-15T13:23:11;4.03;;;2.83;;
20711;SDS011;10517;50.742;4.224;2023-05-15T13:25:47;4.18;;;2.30;;
20711;SDS011;10517;50.742;4.224;2023-05-15T13:28:13;2.53;;;1.75;;
20711;SDS011;10517;50.742;4.224;2023-05-15T13:30:39;3.60;;;2.00;;
20711;SDS011;10517;50.742;4.224;2023-05-15T13:33:05;2.17;;;1.50;;
20711;SDS011;10517;50.742;4.224;2023-05-15T13:35:32;2.92;;;1.17;;
20711;SDS011;10517;50.742;4.224;2023-05-15T13:37:58;1.17;;;1.08;;
20711;SDS011;10517;50.742;4.224;2023-05-15T13:40:24;3.22;;;1.00;;
20711;SDS011;10517;50.742;4.224;2023-05-15T13:42:50;4.57;;;1.17;;
20711;SDS011;10517;50.742;4.224;2023-05-15T13:45:15;2.83;;;1.30;;
20711;SDS011;10517;50.742;4.224;2023-05-15T13:47:41;2.15;;;0.93;;
20711;SDS011;10517;50.742;4.224;2023-05-15T13:50:11;3.88;;;1.15;;
20711;SDS011;10517;50.742;4.224;2023-05-15T13:52:38;1.73;;;1.33;;
20711;SDS011;10517;50.742;4.224;2023-05-15T13:55:05;1.88;;;1.30;;
20711;SDS011;10517;50.742;4.224;2023-05-15T13:57:34;1.85;;;1.35;;
20711;SDS011;10517;50.742;4.224;2023-05-15T14:00:01;2.20;;;1.08;;
20711;SDS011;10517;50.742;4.224;2023-05-15T14:02:29;7.65;;;2.08;;
20711;SDS011;10517;50.742;4.224;2023-05-15T14:04:55;2.38;;;1.40;;
20711;SDS011;10517;50.742;4.224;2023-05-15T14:07:21;2.53;;;1.70;;
20711;SDS011;10517;50.742;4.224;2023-05-15T14:09:48;7.78;;;2.25;;
20711;SDS011;10517;50.742;4.224;2023-05-15T14:12:14;8.73;;;2.05;;
20711;SDS011;10517;50.742;4.224;2023-05-15T14:14:39;2.53;;;1.42;;
20711;SDS011;10517;50.742;4.224;2023-05-15T14:17:05;7.78;;;2.08;;
20711;SDS011;10517;50.742;4.224;2023-05-15T14:19:30;2.92;;;2.03;;
20711;SDS011;10517;50.742;4.224;2023-05-15T14:21:56;3.90;;;2.38;;
20711;SDS011;10517;50.742;4.224;2023-05-15T14:24:22;7.65;;;2.65;;
20711;SDS011;10517;50.742;4.224;2023-05-15T14:26:47;2.60;;;2.03;;
20711;SDS011;10517;50.742;4.224;2023-05-15T14:29:13;7.22;;;2.42;;
20711;SDS011;10517;50.742;4.224;2023-05-15T14:31:39;2.88;;;2.38;;
20711;SDS011;10517;50.742;4.224;2023-05-15T14:34:06;2.30;;;1.33;;
20711;SDS011;10517;50.742;4.224;2023-05-15T14:36:32;3.42;;;1.63;;
20711;SDS011;10517;50.742;4.224;2023-05-15T14:38:58;2.63;;;1.35;;
20711;SDS011;10517;50.742;4.224;2023-05-15T14:41:23;3.20;;;1.30;;
20711;SDS011;10517;50.742;4.224;2023-05-15T14:43:49;4.70;;;1.88;;
20711;SDS011;10517;50.742;4.224;2023-05-15T14:46:15;4.00;;;2.30;;
20711;SDS011;10517;50.742;4.224;2023-05-15T14:48:41;3.80;;;1.40;;
20711;SDS011;10517;50.742;4.224;2023-05-15T14:51:06;2.95;;;2.03;;
20711;SDS011;10517;50.742;4.224;2023-05-15T14:53:32;4.35;;;1.45;;
20711;SDS011;10517;50.742;4.224;2023-05-15T14:55:58;4.40;;;1.75;;
20711;SDS011;10517;50.742;4.224;2023-05-15T14:58:24;2.67;;;1.67;;